createdAt,value
2022-08-20T00:00:25.794Z,61.76
2022-08-20T00:02:56.445Z,61.83
2022-08-20T00:05:27.345Z,61.79
2022-08-20T00:07:55.513Z,61.90
2022-08-20T00:10:24.989Z,61.91
2022-08-20T00:12:53.062Z,61.88
2022-08-20T00:15:24.194Z,62.20
2022-08-20T00:17:54.374Z,62.22
2022-08-20T00:20:25.127Z,62.09
2022-08-20T00:22:53.373Z,62.02
2022-08-20T00:25:21.305Z,62.03
2022-08-20T00:27:50.574Z,61.86
2022-08-20T00:30:18.821Z,61.89
2022-08-20T00:32:49.096Z,62.04
2022-08-20T00:35:18.420Z,62.07
2022-08-20T00:37:46.444Z,61.82
2022-08-20T00:40:22.462Z,62.14
2022-08-20T00:42:57.477Z,62.09
2022-08-20T00:45:26.181Z,61.97
2022-08-20T00:47:54.394Z,61.74
2022-08-20T00:50:27.267Z,61.94
2022-08-20T00:52:55.856Z,61.82
2022-08-20T00:55:31.383Z,61.96
2022-08-20T00:58:05.362Z,61.84
2022-08-20T01:00:37.697Z,61.96
2022-08-20T01:03:09.753Z,61.92
2022-08-20T01:05:38.653Z,61.93
2022-08-20T01:08:07.202Z,62.06
2022-08-20T01:10:39.645Z,61.74
2022-08-20T01:13:12.555Z,62.26
2022-08-20T01:15:43.547Z,61.94
2022-08-20T01:18:14.484Z,62.09
2022-08-20T01:20:46.694Z,62.20
2022-08-20T01:23:30.488Z,62.29
2022-08-20T01:26:06.059Z,62.38
2022-08-20T01:28:40.432Z,62.19
2022-08-20T01:31:10.280Z,62.29
2022-08-20T01:33:39.125Z,62.58
2022-08-20T01:36:08.247Z,62.71
2022-08-20T01:38:36.763Z,62.80
2022-08-20T01:41:28.247Z,62.76
2022-08-20T01:43:58.284Z,62.72
2022-08-20T01:46:29.090Z,62.89
2022-08-20T01:48:59.715Z,62.93
2022-08-20T01:51:29.372Z,63.06
2022-08-20T01:54:00.791Z,63.30
2022-08-20T01:56:32.627Z,63.11
2022-08-20T01:59:03.254Z,62.98
2022-08-20T02:01:46.512Z,63.08
2022-08-20T02:04:18.730Z,63.28
2022-08-20T02:06:56.262Z,63.17
2022-08-20T02:09:27.059Z,63.29
2022-08-20T02:11:57.577Z,63.10
2022-08-20T02:14:27.043Z,63.36
2022-08-20T02:16:55.836Z,63.28
2022-08-20T02:19:27.608Z,63.44
2022-08-20T02:21:58.717Z,63.31
2022-08-20T02:24:26.747Z,63.33
2022-08-20T02:26:56.153Z,63.47
2022-08-20T02:29:26.150Z,63.35
2022-08-20T02:32:32.190Z,63.34
2022-08-20T02:34:43.327Z,63.47
2022-08-20T02:37:13.504Z,63.08
2022-08-20T02:39:42.121Z,63.25
2022-08-20T02:42:12.281Z,63.09
2022-08-20T02:44:40.573Z,62.94
2022-08-20T02:47:08.646Z,62.95
2022-08-20T02:49:36.749Z,62.97
2022-08-20T02:52:05.084Z,62.98
2022-08-20T02:54:33.110Z,63.05
2022-08-20T02:57:02.301Z,63.36
2022-08-20T02:59:31.735Z,63.25
2022-08-20T03:02:00.998Z,62.99
2022-08-20T03:04:29.571Z,62.83
2022-08-20T03:06:58.281Z,63.16
2022-08-20T03:09:26.344Z,62.94
2022-08-20T03:11:54.449Z,62.82
2022-08-20T03:14:22.522Z,63.00
2022-08-20T03:16:52.256Z,62.92
2022-08-20T03:19:20.430Z,62.92
2022-08-20T03:21:48.341Z,63.14
2022-08-20T03:24:16.594Z,62.94
2022-08-20T03:26:44.545Z,62.96
2022-08-20T03:29:12.897Z,62.82
2022-08-20T03:31:41.466Z,62.90
2022-08-20T03:34:10.827Z,62.84
2022-08-20T03:36:38.805Z,62.69
2022-08-20T03:39:11.608Z,62.90
2022-08-20T03:41:39.909Z,62.60
2022-08-20T03:44:07.931Z,62.95
2022-08-20T03:46:36.200Z,62.89
2022-08-20T03:49:04.918Z,62.65
2022-08-20T03:51:34.416Z,62.82
2022-08-20T03:54:22.178Z,62.72
2022-08-20T03:56:50.074Z,62.59
2022-08-20T03:59:18.142Z,62.78
2022-08-20T04:01:47.002Z,62.62
2022-08-20T04:04:16.180Z,62.67
2022-08-20T04:06:47.494Z,62.59
2022-08-20T04:09:15.985Z,62.70
2022-08-20T04:11:47.042Z,62.98
2022-08-20T04:14:18.681Z,63.00
2022-08-20T04:16:49.072Z,62.75
2022-08-20T04:19:17.467Z,62.90
2022-08-20T04:21:48.873Z,62.85
2022-08-20T04:24:22.507Z,62.84
2022-08-20T04:27:02.754Z,62.79
2022-08-20T04:29:32.380Z,63.10
2022-08-20T04:32:02.714Z,63.12
2022-08-20T04:34:34.638Z,63.00
2022-08-20T04:37:05.053Z,62.93
2022-08-20T04:39:33.418Z,63.21
2022-08-20T04:42:01.360Z,63.06
2022-08-20T04:44:29.264Z,63.23
2022-08-20T04:46:57.993Z,63.22
2022-08-20T04:49:26.431Z,63.25
2022-08-20T04:51:54.852Z,63.20
2022-08-20T04:54:24.096Z,63.34
2022-08-20T04:56:52.442Z,63.44
2022-08-20T04:59:20.616Z,63.25
2022-08-20T05:01:48.563Z,63.03
2022-08-20T05:04:16.513Z,62.95
2022-08-20T05:06:45.241Z,63.02
2022-08-20T05:09:13.196Z,63.16
2022-08-20T05:11:42.489Z,63.00
2022-08-20T05:14:11.131Z,63.31
2022-08-20T05:16:40.840Z,63.06
2022-08-20T05:19:10.643Z,63.25
2022-08-20T05:21:39.466Z,63.18
2022-08-20T05:24:08.425Z,63.20
2022-08-20T05:26:36.825Z,63.06
2022-08-20T05:29:06.930Z,63.06
2022-08-20T05:31:36.128Z,62.85
2022-08-20T05:34:09.767Z,62.99
2022-08-20T05:36:40.100Z,62.86
2022-08-20T05:39:08.888Z,63.07
2022-08-20T05:41:37.776Z,63.23
2022-08-20T05:44:10.671Z,63.06
2022-08-20T05:46:40.822Z,62.82
2022-08-20T05:49:09.129Z,62.59
2022-08-20T05:51:37.879Z,62.51
2022-08-20T05:54:07.067Z,62.65
2022-08-20T05:56:35.292Z,62.79
2022-08-20T05:59:05.017Z,62.36
2022-08-20T06:01:36.353Z,62.30
2022-08-20T06:04:22.591Z,62.08
2022-08-20T06:06:51.850Z,62.10
2022-08-20T06:09:30.767Z,62.38
2022-08-20T06:12:01.073Z,62.09
2022-08-20T06:14:29.206Z,62.00
2022-08-20T06:17:04.045Z,62.37
2022-08-20T06:19:33.250Z,62.21
2022-08-20T06:22:01.380Z,62.09
2022-08-20T06:24:29.414Z,62.11
2022-08-20T06:26:58.681Z,61.89
2022-08-20T06:29:27.222Z,61.76
2022-08-20T06:31:55.809Z,61.48
2022-08-20T06:34:28.406Z,61.63
2022-08-20T06:37:00.016Z,61.53
2022-08-20T06:39:29.634Z,61.62
2022-08-20T06:41:58.705Z,61.24
2022-08-20T06:44:28.508Z,61.31
2022-08-20T06:47:01.034Z,61.24
2022-08-20T06:49:34.188Z,61.24
2022-08-20T06:52:03.807Z,60.86
2022-08-20T06:54:32.789Z,61.01
2022-08-20T06:57:00.994Z,60.58
2022-08-20T06:59:28.821Z,60.46
2022-08-20T07:01:56.998Z,60.29
2022-08-20T07:04:25.853Z,60.25
2022-08-20T07:06:57.580Z,60.11
2022-08-20T07:09:26.667Z,60.34
2022-08-20T07:11:54.781Z,60.06
2022-08-20T07:14:23.050Z,59.91
2022-08-20T07:16:51.014Z,60.41
2022-08-20T07:19:18.984Z,59.94
2022-08-20T07:21:47.609Z,59.88
2022-08-20T07:24:16.943Z,60.04
2022-08-20T07:26:44.961Z,60.21
2022-08-20T07:29:12.948Z,60.36
2022-08-20T07:31:58.186Z,59.33
2022-08-20T07:34:26.116Z,57.83
2022-08-20T07:36:54.181Z,57.40
2022-08-20T07:39:24.285Z,57.64
2022-08-20T07:42:03.276Z,57.82
2022-08-20T07:44:31.482Z,57.45
2022-08-20T07:47:00.275Z,57.17
2022-08-20T07:49:28.335Z,56.95
2022-08-20T07:51:56.239Z,56.35
2022-08-20T07:54:25.613Z,56.21
2022-08-20T07:57:02.533Z,55.79
2022-08-20T07:59:31.014Z,55.48
2022-08-20T08:01:59.288Z,55.72
2022-08-20T08:04:27.330Z,55.45
2022-08-20T08:06:59.996Z,55.36
2022-08-20T08:09:29.912Z,55.04
2022-08-20T08:12:00.764Z,54.29
2022-08-20T08:14:31.964Z,54.38
2022-08-20T08:17:04.511Z,53.83
2022-08-20T08:19:38.716Z,53.74
2022-08-20T08:22:11.649Z,53.93
2022-08-20T08:24:43.348Z,54.15
2022-08-20T08:27:25.637Z,54.37
2022-08-20T08:29:54.557Z,54.95
2022-08-20T08:32:22.509Z,55.46
2022-08-20T08:34:50.624Z,55.25
2022-08-20T08:37:18.580Z,55.11
2022-08-20T08:39:47.941Z,55.32
2022-08-20T08:42:27.575Z,55.15
2022-08-20T08:44:55.667Z,55.85
2022-08-20T08:47:28.130Z,55.45
2022-08-20T08:49:57.407Z,54.82
2022-08-20T08:52:29.880Z,54.14
2022-08-20T08:55:10.972Z,54.15
2022-08-20T08:57:39.031Z,54.57
2022-08-20T09:00:12.156Z,55.33
2022-08-20T09:02:42.505Z,55.50
2022-08-20T09:05:17.390Z,54.41
2022-08-20T09:07:49.418Z,53.97
2022-08-20T09:10:22.975Z,53.85
2022-08-20T09:12:52.316Z,53.70
2022-08-20T09:15:21.289Z,53.57
2022-08-20T09:17:49.296Z,53.76
2022-08-20T09:20:18.249Z,53.54
2022-08-20T09:22:46.234Z,53.49
2022-08-20T09:25:15.960Z,52.49
2022-08-20T09:27:45.340Z,52.78
2022-08-20T09:30:16.939Z,52.99
2022-08-20T09:32:46.505Z,53.44
2022-08-20T09:35:15.472Z,53.18
2022-08-20T09:37:43.931Z,52.02
2022-08-20T09:40:13.757Z,50.64
2022-08-20T09:42:45.409Z,51.32
2022-08-20T09:45:14.290Z,51.58
2022-08-20T09:47:54.979Z,51.25
2022-08-20T09:50:25.158Z,50.45
2022-08-20T09:52:55.341Z,50.55
2022-08-20T09:55:29.478Z,50.03
2022-08-20T09:57:59.895Z,49.64
2022-08-20T10:00:28.068Z,50.27
2022-08-20T10:02:56.016Z,50.17
2022-08-20T10:05:24.309Z,50.83
2022-08-20T10:07:52.222Z,51.44
2022-08-20T10:10:20.270Z,51.25
2022-08-20T10:12:52.814Z,50.50
2022-08-20T10:15:23.972Z,49.38
2022-08-20T10:17:51.908Z,49.17
2022-08-20T10:20:20.085Z,48.93
2022-08-20T10:22:48.095Z,48.10
2022-08-20T10:25:16.795Z,48.04
2022-08-20T10:27:45.054Z,48.38
2022-08-20T10:30:13.504Z,48.68
2022-08-20T10:32:43.028Z,48.46
2022-08-20T10:35:11.102Z,48.16
2022-08-20T10:37:39.207Z,47.17
2022-08-20T10:40:08.866Z,47.25
2022-08-20T10:42:41.811Z,47.19
2022-08-20T10:45:11.341Z,46.99
2022-08-20T10:47:39.873Z,46.55
2022-08-20T10:50:12.575Z,47.19
2022-08-20T10:52:40.554Z,46.51
2022-08-20T10:55:09.424Z,45.97
2022-08-20T10:57:39.374Z,45.74
2022-08-20T11:00:09.246Z,45.30
2022-08-20T11:02:37.423Z,45.48
2022-08-20T11:05:12.974Z,45.96
2022-08-20T11:07:53.650Z,46.76
2022-08-20T11:10:28.981Z,47.68
2022-08-20T11:12:58.452Z,46.82
2022-08-20T11:15:26.567Z,46.43
2022-08-20T11:17:55.352Z,45.96
2022-08-20T11:20:26.036Z,45.56
2022-08-20T11:22:56.196Z,45.83
2022-08-20T11:25:24.289Z,45.52
2022-08-20T11:27:53.712Z,45.98
2022-08-20T11:30:24.534Z,46.21
2022-08-20T11:32:52.599Z,47.07
2022-08-20T11:38:11.487Z,47.70
2022-08-20T11:40:39.504Z,47.76
2022-08-20T11:43:16.296Z,47.94
2022-08-20T11:45:46.425Z,48.10
2022-08-20T11:48:14.713Z,48.44
2022-08-20T11:50:42.747Z,48.37
2022-08-20T11:53:12.077Z,48.49
2022-08-20T11:55:40.631Z,48.38
2022-08-20T11:58:08.603Z,48.88
2022-08-20T12:00:37.465Z,48.63
2022-08-20T12:03:08.902Z,48.70
2022-08-20T12:05:37.751Z,48.79
2022-08-20T12:08:06.367Z,48.76
2022-08-20T12:10:36.496Z,48.78
2022-08-20T12:13:04.959Z,48.79
2022-08-20T12:15:33.689Z,48.49
2022-08-20T12:18:02.235Z,48.80
2022-08-20T12:20:30.134Z,48.79
2022-08-20T12:22:58.986Z,48.71
2022-08-20T12:25:27.469Z,48.89
2022-08-20T12:27:57.040Z,48.92
2022-08-20T12:30:25.787Z,48.89
2022-08-20T12:32:53.793Z,48.71
2022-08-20T12:35:22.063Z,48.84
2022-08-20T12:37:50.127Z,48.88
2022-08-20T12:40:31.845Z,48.88
2022-08-20T12:43:02.678Z,48.88
2022-08-20T12:45:31.567Z,48.99
2022-08-20T12:48:03.635Z,49.33
2022-08-20T12:50:32.109Z,48.82
2022-08-20T12:53:00.614Z,48.94
2022-08-20T12:55:28.661Z,49.12
2022-08-20T12:57:59.504Z,48.87
2022-08-20T13:00:31.151Z,48.74
2022-08-20T13:03:01.598Z,48.80
2022-08-20T13:05:31.118Z,48.70
2022-08-20T13:07:59.424Z,48.99
2022-08-20T13:10:31.157Z,48.84
2022-08-20T13:13:01.796Z,48.85
2022-08-20T13:15:31.792Z,48.69
2022-08-20T13:18:03.400Z,48.60
2022-08-20T13:20:34.605Z,48.66
2022-08-20T13:23:03.422Z,48.57
2022-08-20T13:25:32.037Z,47.84
2022-08-20T13:28:03.888Z,44.77
2022-08-20T13:30:34.268Z,45.84
2022-08-20T13:33:02.239Z,45.44
2022-08-20T13:35:30.417Z,44.50
2022-08-20T13:37:58.495Z,44.18
2022-08-20T13:40:26.941Z,43.33
2022-08-20T13:42:55.048Z,42.80
2022-08-20T13:45:23.104Z,42.45
2022-08-20T13:47:55.711Z,42.74
2022-08-20T13:50:26.141Z,42.07
2022-08-20T13:52:54.315Z,41.97
2022-08-20T13:55:26.187Z,41.87
2022-08-20T13:57:55.336Z,41.87
2022-08-20T14:00:31.955Z,41.52
2022-08-20T14:03:02.386Z,40.88
2022-08-20T14:05:30.817Z,41.20
2022-08-20T14:08:07.374Z,41.33
2022-08-20T14:10:35.939Z,41.63
2022-08-20T14:13:06.668Z,41.71
2022-08-20T14:15:35.552Z,41.79
2022-08-20T14:18:05.081Z,42.05
2022-08-20T14:20:35.329Z,41.85
2022-08-20T14:23:07.006Z,42.08
2022-08-20T14:25:35.454Z,42.34
2022-08-20T14:28:11.241Z,41.90
2022-08-20T14:30:39.980Z,42.25
2022-08-20T14:33:09.436Z,42.73
2022-08-20T14:35:37.653Z,42.75
2022-08-20T14:38:06.148Z,42.84
2022-08-20T14:40:35.648Z,42.75
2022-08-20T14:43:03.780Z,42.41
2022-08-20T14:45:32.182Z,42.53
2022-08-20T14:48:00.968Z,42.49
2022-08-20T14:50:33.432Z,42.50
2022-08-20T14:53:01.896Z,42.45
2022-08-20T14:55:33.229Z,42.17
2022-08-20T14:58:01.218Z,42.42
2022-08-20T15:00:33.831Z,42.38
2022-08-20T15:03:02.005Z,42.68
2022-08-20T15:05:31.523Z,42.56
2022-08-20T15:07:59.660Z,42.88
2022-08-20T15:10:30.762Z,42.53
2022-08-20T15:12:59.241Z,42.62
2022-08-20T15:15:27.858Z,42.86
2022-08-20T15:17:57.999Z,42.85
2022-08-20T15:20:28.989Z,42.85
2022-08-20T15:22:58.449Z,42.81
2022-08-20T15:25:36.939Z,43.02
2022-08-20T15:28:07.074Z,42.83
2022-08-20T15:30:35.118Z,43.06
2022-08-20T15:33:03.283Z,42.86
2022-08-20T15:35:31.429Z,43.23
2022-08-20T15:38:00.922Z,43.02
2022-08-20T15:40:31.669Z,42.95
2022-08-20T15:43:00.934Z,43.07
2022-08-20T15:45:29.225Z,42.72
2022-08-20T15:48:03.469Z,42.83
2022-08-20T15:50:55.504Z,42.91
2022-08-20T15:53:29.933Z,42.75
2022-08-20T15:56:05.562Z,42.91
2022-08-20T15:58:40.610Z,42.92
2022-08-20T16:01:24.585Z,43.19
2022-08-20T16:04:08.752Z,43.25
2022-08-20T16:06:37.685Z,42.95
2022-08-20T16:09:24.121Z,42.90
2022-08-20T16:11:59.931Z,43.11
2022-08-20T16:14:31.514Z,43.11
2022-08-20T16:17:06.226Z,43.52
2022-08-20T16:19:45.906Z,43.97
2022-08-20T16:22:18.324Z,44.35
2022-08-20T16:24:47.896Z,44.85
2022-08-20T16:27:25.633Z,45.08
2022-08-20T16:29:58.940Z,44.94
2022-08-20T16:32:37.374Z,45.15
2022-08-20T16:35:18.967Z,45.56
2022-08-20T16:37:56.592Z,45.36
2022-08-20T16:40:28.634Z,45.55
2022-08-20T16:42:59.117Z,45.51
2022-08-20T16:45:29.908Z,46.32
2022-08-20T16:48:02.399Z,46.71
2022-08-20T16:50:35.240Z,46.59
2022-08-20T16:53:03.300Z,46.73
2022-08-20T16:55:32.577Z,47.16
2022-08-20T16:58:01.459Z,47.34
2022-08-20T17:00:35.382Z,47.82
2022-08-20T17:03:05.602Z,47.72
2022-08-20T17:05:49.780Z,48.16
2022-08-20T17:08:21.102Z,47.96
2022-08-20T17:11:00.874Z,47.91
2022-08-20T17:13:31.289Z,47.76
2022-08-20T17:16:01.554Z,48.65
2022-08-20T17:18:33.477Z,48.50
2022-08-20T17:21:02.949Z,48.18
2022-08-20T17:23:49.174Z,47.90
2022-08-20T17:26:24.325Z,47.34
2022-08-20T17:28:54.733Z,47.57
2022-08-20T17:31:37.460Z,47.59
2022-08-20T17:34:15.381Z,47.70
2022-08-20T17:36:51.178Z,47.81
2022-08-20T17:39:22.011Z,47.50
2022-08-20T17:41:56.051Z,47.73
2022-08-20T17:44:29.289Z,47.72
2022-08-20T17:47:00.067Z,47.78
2022-08-20T17:49:35.156Z,47.92
2022-08-20T17:52:07.054Z,48.05
2022-08-20T17:54:39.900Z,48.05
2022-08-20T17:57:14.246Z,47.99
2022-08-20T18:00:00.695Z,47.94
2022-08-20T18:02:31.704Z,47.71
2022-08-20T18:04:59.739Z,47.74
2022-08-20T18:07:32.249Z,48.41
2022-08-20T18:10:07.671Z,48.08
2022-08-20T18:12:42.587Z,47.93
2022-08-20T18:15:17.828Z,47.58
2022-08-20T18:18:16.724Z,47.40
2022-08-20T18:21:11.740Z,47.66
2022-08-20T18:23:47.810Z,47.89
2022-08-20T18:26:21.066Z,47.73
2022-08-20T18:28:57.209Z,47.86
2022-08-20T18:31:28.336Z,47.79
2022-08-20T18:33:56.800Z,48.45
2022-08-20T18:36:27.882Z,48.80
2022-08-20T18:39:05.100Z,48.21
2022-08-20T18:41:35.899Z,48.20
2022-08-20T18:44:09.140Z,48.96
2022-08-20T18:46:37.995Z,48.44
2022-08-20T18:49:08.540Z,48.32
2022-08-20T18:51:43.769Z,48.41
2022-08-20T18:54:24.500Z,49.14
2022-08-20T18:57:04.161Z,49.07
2022-08-20T18:59:39.094Z,49.09
2022-08-20T19:02:18.587Z,49.27
2022-08-20T19:05:02.241Z,49.13
2022-08-20T19:07:45.816Z,49.21
2022-08-20T19:10:40.786Z,49.06
2022-08-20T19:13:47.092Z,49.38
2022-08-20T19:16:21.134Z,49.42
2022-08-20T19:18:53.154Z,49.01
2022-08-20T19:21:25.655Z,49.19
2022-08-20T19:23:57.156Z,49.43
2022-08-20T19:26:28.458Z,49.07
2022-08-20T19:28:59.926Z,49.05
2022-08-20T19:31:32.796Z,49.39
2022-08-20T19:34:19.968Z,49.19
2022-08-20T19:36:55.692Z,49.52
2022-08-20T19:39:25.592Z,49.54
2022-08-20T19:41:57.715Z,49.64
2022-08-20T19:44:31.325Z,49.49
2022-08-20T19:47:02.128Z,49.92
2022-08-20T19:49:42.597Z,49.99
2022-08-20T19:52:22.832Z,49.83
2022-08-20T19:54:54.711Z,49.70
2022-08-20T19:57:24.104Z,50.03
2022-08-20T19:59:57.181Z,50.09
2022-08-20T20:02:29.102Z,49.62
2022-08-20T20:04:58.026Z,49.54
2022-08-20T20:07:37.065Z,49.34
2022-08-20T20:10:08.418Z,49.36
2022-08-20T20:12:36.534Z,49.50
2022-08-20T20:15:07.595Z,49.38
2022-08-20T20:17:37.745Z,49.51
2022-08-20T20:20:20.756Z,49.30
2022-08-20T20:22:52.441Z,48.99
2022-08-20T20:25:24.567Z,49.46
2022-08-20T20:27:54.116Z,49.20
2022-08-20T20:30:25.826Z,49.02
2022-08-20T20:32:56.306Z,49.05
2022-08-20T20:35:29.012Z,49.04
2022-08-20T20:38:03.178Z,49.08
2022-08-20T20:40:36.121Z,48.73
2022-08-20T20:43:07.114Z,48.71
2022-08-20T20:45:37.715Z,48.95
2022-08-20T20:48:19.740Z,48.95
2022-08-20T20:50:49.253Z,48.63
2022-08-20T20:53:32.287Z,48.87
2022-08-20T20:56:28.713Z,48.93
2022-08-20T20:58:56.996Z,48.67
2022-08-20T21:01:45.801Z,48.85
2022-08-20T21:04:14.607Z,48.94
2022-08-20T21:06:42.506Z,48.93
2022-08-20T21:09:10.554Z,48.84
2022-08-20T21:11:38.538Z,48.78
2022-08-20T21:14:06.710Z,48.84
2022-08-20T21:16:34.902Z,48.55
2022-08-20T21:19:05.574Z,48.66
2022-08-20T21:21:35.520Z,49.09
2022-08-20T21:24:03.642Z,49.17
2022-08-20T21:26:31.928Z,49.27
2022-08-20T21:29:00.019Z,48.83
2022-08-20T21:31:35.386Z,49.02
2022-08-20T21:34:03.452Z,48.81
2022-08-20T21:36:31.333Z,49.00
2022-08-20T21:39:01.817Z,48.57
2022-08-20T21:41:30.436Z,48.63
2022-08-20T21:43:58.727Z,48.67
2022-08-20T21:46:28.733Z,49.06
2022-08-20T21:48:57.397Z,48.81
2022-08-20T21:51:25.479Z,49.07
2022-08-20T21:53:53.499Z,49.07
2022-08-20T21:56:22.966Z,48.92
2022-08-20T21:58:53.116Z,48.99
2022-08-20T22:01:24.888Z,48.84
2022-08-20T22:03:52.807Z,48.96
2022-08-20T22:06:20.794Z,48.82
2022-08-20T22:08:48.707Z,48.90
2022-08-20T22:11:16.686Z,48.90
2022-08-20T22:13:46.932Z,49.04
2022-08-20T22:16:18.439Z,48.96
2022-08-20T22:18:47.880Z,48.86
2022-08-20T22:21:18.912Z,49.15
2022-08-20T22:23:47.334Z,49.15
2022-08-20T22:26:15.426Z,48.59
2022-08-20T22:28:45.246Z,48.95
2022-08-20T22:31:22.356Z,49.03
2022-08-20T22:33:50.366Z,48.78
2022-08-20T22:36:19.038Z,48.66
2022-08-20T22:38:47.737Z,48.98
2022-08-20T22:41:23.959Z,49.03
2022-08-20T22:43:56.458Z,49.24
2022-08-20T22:46:27.323Z,49.42
2022-08-20T22:48:55.767Z,49.34
2022-08-20T22:51:34.665Z,49.47
2022-08-20T22:54:04.668Z,49.05
2022-08-20T22:56:32.874Z,49.24
2022-08-20T22:59:05.151Z,49.15
2022-08-20T23:01:33.263Z,49.17
2022-08-20T23:04:20.537Z,49.26
2022-08-20T23:06:48.596Z,49.32
2022-08-20T23:09:21.019Z,49.51
2022-08-20T23:11:49.345Z,49.56
2022-08-20T23:14:19.044Z,49.16
2022-08-20T23:16:49.131Z,49.36
2022-08-20T23:19:21.657Z,49.25
2022-08-20T23:21:50.128Z,49.13
2022-08-20T23:24:18.342Z,49.41
2022-08-20T23:26:52.386Z,49.37
2022-08-20T23:29:25.858Z,49.16
2022-08-20T23:31:55.018Z,49.59
2022-08-20T23:34:22.937Z,49.36
2022-08-20T23:36:52.463Z,49.36
2022-08-20T23:39:20.894Z,49.22
2022-08-20T23:41:48.991Z,49.34
2022-08-20T23:44:26.112Z,49.21
2022-08-20T23:46:56.915Z,49.11
2022-08-20T23:49:25.416Z,49.35
2022-08-20T23:51:53.352Z,49.16
2022-08-20T23:54:21.367Z,49.38
2022-08-20T23:56:49.551Z,49.48
2022-08-20T23:59:17.934Z,49.21
